Time;durP1;ratioP1;P1;durP2;ratioP2;P2;SDS_P1;SDS_P2;PMS_P1;PMS_P2;Temp;Humidity;BMP_temperature;BMP_pressure;BME280_temperature;BME280_humidity;BME280_pressure;Samples;Min_cycle;Max_cycle;Signal;HPM_P1;HPM_P2
2021/07/02 00:01:07;;;;;;;;;4.00;4.00;;;;;23.47;53.69;98143.78;4917067;28;104606;-87
2021/07/02 00:03:34;;;;;;;;;5.00;3.00;;;;;23.46;53.47;98133.91;4929437;28;102383;-87
2021/07/02 00:06:02;;;;;;;;;4.33;4.33;;;;;23.47;53.57;98141.03;4926408;28;102266;-88
2021/07/02 00:08:33;;;;;;;;;4.00;4.00;;;;;23.46;53.36;98139.41;4916808;28;102266;-88
2021/07/02 00:11:08;;;;;;;;;4.00;3.00;;;;;23.44;53.24;98131.44;4915244;28;108305;-86
2021/07/02 00:13:42;;;;;;;;;3.67;3.00;;;;;23.44;53.02;98131.44;4920728;28;102415;-87
2021/07/02 00:16:18;;;;;;;;;3.33;2.67;;;;;23.43;53.06;98126.16;4918892;28;102516;-88
2021/07/02 00:18:55;;;;;;;;;3.33;3.00;;;;;23.42;53.35;98133.63;4924432;28;102650;-88
2021/07/02 00:21:27;;;;;;;;;3.00;2.67;;;;;23.43;53.19;98137.19;4922103;28;103978;-88
2021/07/02 00:24:04;;;;;;;;;5.67;5.00;;;;;23.25;53.15;98111.22;4931333;28;103194;-88
2021/07/02 00:26:40;;;;;;;;;3.00;3.00;;;;;23.43;53.02;98129.75;4921567;28;102089;-88
2021/07/02 00:29:16;;;;;;;;;1.00;1.00;;;;;23.41;53.08;98123.72;4934085;28;103225;-88
2021/07/02 00:31:52;;;;;;;;;3.00;3.00;;;;;23.42;53.12;98130.03;4918711;28;104179;-88
2021/07/02 00:34:27;;;;;;;;;4.00;3.33;;;;;23.40;53.09;98124.81;4921455;28;102586;-88
2021/07/02 00:37:00;;;;;;;;;3.00;3.00;;;;;23.41;52.93;98136.69;4926103;28;102066;-88
2021/07/02 00:39:31;;;;;;;;;1.00;1.00;;;;;23.40;52.86;98124.81;4914991;28;102465;-88
2021/07/02 00:41:58;;;;;;;;;2.00;2.00;;;;;23.39;53.01;98134.22;4910617;28;103331;-88
2021/07/02 00:44:45;;;;;;;;;3.00;3.00;;;;;23.39;52.97;98131.47;4916886;28;103443;-88
2021/07/02 00:47:12;;;;;;;;;3.00;3.00;;;;;23.37;52.70;98130.13;4866369;28;102364;-88
2021/07/02 00:49:39;;;;;;;;;4.33;4.00;;;;;23.37;53.03;98127.38;4918324;28;104347;-88
2021/07/02 00:52:08;;;;;;;;;3.00;3.00;;;;;23.39;53.02;98134.22;4933611;28;104289;-88
2021/07/02 00:54:36;;;;;;;;;4.00;3.33;;;;;23.38;53.20;98132.56;4933471;28;102273;-88
2021/07/02 00:57:07;;;;;;;;;3.00;3.00;;;;;23.39;52.93;98144.44;4909490;28;102816;-88
2021/07/02 00:59:34;;;;;;;;;3.00;3.00;;;;;23.38;52.51;98126.22;4924057;28;102633;-88
2021/07/02 01:02:02;;;;;;;;;3.67;3.00;;;;;23.38;53.06;98120.72;4886440;28;104999;-87
2021/07/02 01:04:29;;;;;;;;;5.00;3.67;;;;;23.37;52.61;98122.63;4911836;28;102653;-88
2021/07/02 01:06:56;;;;;;;;;4.00;4.00;;;;;23.37;53.07;98122.63;4915547;28;102558;-88
2021/07/02 01:09:26;;;;;;;;;3.00;3.00;;;;;23.35;52.77;98115.78;4907393;28;102597;-87
2021/07/02 01:12:05;;;;;;;;;4.33;3.67;;;;;23.36;52.64;98115.50;4917006;28;103646;-87
2021/07/02 01:14:43;;;;;;;;;4.00;4.00;;;;;23.36;53.07;98118.25;4931386;28;103490;-87
2021/07/02 01:17:20;;;;;;;;;2.67;2.67;;;;;23.35;52.88;98110.28;4919721;28;102201;-87
2021/07/02 01:19:56;;;;;;;;;3.00;3.00;;;;;23.35;52.91;98102.00;4921252;28;103505;-87
2021/07/02 01:22:36;;;;;;;;;3.00;3.00;;;;;23.34;52.64;98103.94;4926005;28;104569;-87
2021/07/02 01:25:12;;;;;;;;;4.00;3.00;;;;;23.35;52.84;98104.75;4910265;28;104243;-87
2021/07/02 01:27:50;;;;;;;;;3.00;3.00;;;;;23.35;52.62;98110.28;4858658;28;104369;-87
2021/07/02 01:30:22;;;;;;;;;3.00;3.00;;;;;23.33;52.82;98102.28;4903574;28;102962;-87
2021/07/02 01:32:55;;;;;;;;;2.67;2.67;;;;;23.33;52.64;98106.97;4918139;28;103071;-87
2021/07/02 01:35:28;;;;;;;;;3.00;3.00;;;;;23.31;52.40;98110.03;4915522;28;103636;-87
2021/07/02 01:38:05;;;;;;;;;3.00;3.00;;;;;23.31;52.65;98103.69;4923463;28;104041;-87
2021/07/02 01:40:39;;;;;;;;;2.33;2.33;;;;;23.33;52.51;98107.78;4919026;28;104165;-87
2021/07/02 01:43:15;;;;;;;;;3.00;3.00;;;;;23.32;52.60;98099.84;4907294;28;107816;-87
2021/07/02 01:45:51;;;;;;;;;2.67;2.67;;;;;23.27;52.50;98097.13;4914676;28;103834;-87
2021/07/02 01:48:26;;;;;;;;;3.33;3.00;;;;;23.30;52.54;98110.34;4919433;28;102140;-87
2021/07/02 01:50:57;;;;;;;;;4.67;3.00;;;;;23.30;52.50;98113.09;4909406;28;102623;-87
2021/07/02 01:53:24;;;;;;;;;2.00;2.00;;;;;23.28;52.44;98105.09;4921903;28;104066;-87
2021/07/02 01:55:52;;;;;;;;;3.00;3.00;;;;;23.29;52.34;98116.97;4922344;28;104339;-87
2021/07/02 01:58:19;;;;;;;;;2.67;2.67;;;;;23.29;52.46;98123.31;4916973;28;102363;-87
2021/07/02 02:00:47;;;;;;;;;3.00;3.00;;;;;23.28;52.15;98126.38;4921705;28;102658;-87
2021/07/02 02:03:14;;;;;;;;;2.67;2.67;;;;;23.26;52.28;98125.84;4920626;28;104135;-87
2021/07/02 02:05:41;;;;;;;;;2.00;2.00;;;;;23.28;52.29;98126.38;4926253;28;105556;-87
2021/07/02 02:08:09;;;;;;;;;2.67;2.67;;;;;23.26;52.24;98126.66;4917209;28;102438;-87
2021/07/02 02:10:36;;;;;;;;;3.00;3.00;;;;;23.24;52.12;98128.88;4915558;28;102760;-87
2021/07/02 02:13:03;;;;;;;;;2.67;2.67;;;;;23.12;52.24;98107.25;4918123;28;104173;-87
2021/07/02 02:15:30;;;;;;;;;2.00;2.00;;;;;23.25;52.04;98129.69;4921930;28;102491;-87
2021/07/02 02:17:58;;;;;;;;;3.00;3.00;;;;;23.22;52.21;98133.88;4921348;28;107148;-87
2021/07/02 02:20:25;;;;;;;;;2.33;2.33;;;;;23.24;52.07;98136.31;4921798;28;102173;-87
2021/07/02 02:22:52;;;;;;;;;3.00;3.00;;;;;23.23;52.17;98131.94;4924725;28;104859;-87
2021/07/02 02:25:19;;;;;;;;;2.33;2.00;;;;;23.22;52.13;98122.03;4919060;28;103377;-87
2021/07/02 02:27:48;;;;;;;;;2.00;2.00;;;;;23.23;52.08;98129.19;4914443;28;102502;-87
2021/07/02 02:30:15;;;;;;;;;2.00;2.00;;;;;23.21;52.11;98125.88;4919507;28;102751;-87
2021/07/02 02:32:42;;;;;;;;;3.33;3.00;;;;;23.21;52.09;98125.88;4912920;28;105022;-86
2021/07/02 02:35:10;;;;;;;;;3.33;2.00;;;;;23.19;52.10;98126.19;4916048;28;102855;-87
2021/07/02 02:37:37;;;;;;;;;3.00;3.00;;;;;23.19;51.86;98117.09;4921255;28;104065;-87
2021/07/02 02:40:06;;;;;;;;;4.00;3.00;;;;;23.18;51.96;98127.31;4911844;28;104115;-87
2021/07/02 02:42:33;;;;;;;;;2.00;2.00;;;;;23.20;52.28;98125.06;4922476;28;104026;-87
2021/07/02 02:45:01;;;;;;;;;3.00;3.00;;;;;23.17;52.04;98125.66;4914868;28;102346;-87
2021/07/02 02:47:28;;;;;;;;;2.33;2.33;;;;;23.18;51.96;98121.78;4904479;28;104507;-87
2021/07/02 02:49:56;;;;;;;;;1.00;1.00;;;;;23.17;51.90;98128.41;4915977;28;102971;-87
2021/07/02 02:52:23;;;;;;;;;2.33;2.33;;;;;23.17;51.82;98133.13;4917420;28;104289;-87
2021/07/02 02:54:50;;;;;;;;;2.33;2.00;;;;;23.18;51.97;98129.25;4920855;28;102353;-87
2021/07/02 02:57:17;;;;;;;;;3.00;2.00;;;;;23.16;51.96;98121.25;4925180;28;103863;-87
2021/07/02 02:59:44;;;;;;;;;3.67;3.67;;;;;23.17;51.88;98122.09;4917526;28;103135;-87
2021/07/02 03:02:12;;;;;;;;;3.00;3.00;;;;;23.17;51.96;98125.66;4917238;28;107932;-88
2021/07/02 03:04:39;;;;;;;;;2.67;2.00;;;;;23.16;51.70;98128.72;4920856;28;102087;-87
2021/07/02 03:07:06;;;;;;;;;2.00;2.00;;;;;23.17;51.78;98130.34;4906401;28;102335;-87
2021/07/02 03:09:33;;;;;;;;;4.00;2.00;;;;;23.05;51.81;98117.81;4922379;28;102635;-87
2021/07/02 03:12:01;;;;;;;;;2.00;2.00;;;;;23.14;51.76;98129.81;4910077;28;104078;-87
2021/07/02 03:14:28;;;;;;;;;2.00;2.00;;;;;23.13;51.74;98130.94;4920154;28;102457;-87
2021/07/02 03:16:55;;;;;;;;;3.00;3.00;;;;;23.14;51.67;98145.56;4912476;28;102467;-87
2021/07/02 03:19:22;;;;;;;;;2.00;2.00;;;;;23.15;51.62;98147.19;4917416;28;104202;-87
2021/07/02 03:21:49;;;;;;;;;3.00;2.67;;;;;23.14;51.44;98140.84;4916255;28;104174;-87
2021/07/02 03:24:16;;;;;;;;;2.67;2.00;;;;;23.14;51.27;98149.13;4923742;28;102251;-87
2021/07/02 03:26:44;;;;;;;;;2.00;2.00;;;;;23.14;51.21;98156.59;4917546;28;102488;-86
2021/07/02 03:29:11;;;;;;;;;4.00;3.00;;;;;23.13;50.99;98152.19;4932192;28;102757;-87
2021/07/02 03:31:38;;;;;;;;;2.33;2.33;;;;;23.12;50.96;98150.53;4917743;28;110659;-87
2021/07/02 03:34:05;;;;;;;;;3.00;3.00;;;;;23.13;50.97;98153.03;4909497;28;103049;-87
2021/07/02 03:36:33;;;;;;;;;3.00;3.00;;;;;23.12;51.00;98162.41;4920632;28;102427;-87
2021/07/02 03:39:00;;;;;;;;;2.33;2.33;;;;;23.11;50.78;98171.78;4924707;28;102737;-87
2021/07/02 03:41:27;;;;;;;;;4.67;4.67;;;;;23.10;50.99;98164.63;4916036;28;104335;-87
2021/07/02 03:43:58;;;;;;;;;3.00;3.00;;;;;23.12;50.98;98164.34;4923384;28;102611;-87
2021/07/02 03:46:25;;;;;;;;;3.00;2.00;;;;;23.11;50.83;98166.25;4913488;28;102464;-87
2021/07/02 03:48:53;;;;;;;;;2.33;2.33;;;;;23.10;50.84;98167.38;4917764;28;102573;-85
2021/07/02 03:51:20;;;;;;;;;5.00;3.00;;;;;23.09;50.94;98168.50;4895112;28;105667;-88
2021/07/02 03:53:48;;;;;;;;;3.00;3.00;;;;;23.09;51.18;98168.50;4918598;28;102519;-88
2021/07/02 03:56:15;;;;;;;;;5.00;3.33;;;;;23.08;51.03;98175.13;4896239;28;103040;-87
2021/07/02 03:58:42;;;;;;;;;2.00;2.00;;;;;23.09;51.00;98182.31;4921745;28;102554;-88
2021/07/02 04:01:10;;;;;;;;;3.00;2.00;;;;;23.09;50.77;98179.53;4916827;28;108944;-88
2021/07/02 04:03:38;;;;;;;;;3.00;3.00;;;;;23.10;50.80;98170.13;4922233;28;102907;-88
2021/07/02 04:06:05;;;;;;;;;2.33;2.33;;;;;23.08;50.80;98172.38;4924091;28;102539;-88
2021/07/02 04:08:33;;;;;;;;;2.33;2.33;;;;;23.09;50.80;98187.81;4925516;28;105951;-88
2021/07/02 04:11:01;;;;;;;;;2.33;2.33;;;;;23.06;50.72;98180.09;4918183;28;104257;-88
2021/07/02 04:13:28;;;;;;;;;2.00;2.00;;;;;23.08;50.69;98183.41;4913597;28;102818;-87
2021/07/02 04:15:56;;;;;;;;;2.00;2.00;;;;;23.10;50.78;98183.09;4931769;28;102690;-88
2021/07/02 04:18:23;;;;;;;;;3.00;3.00;;;;;23.07;50.77;98170.72;4912845;28;102742;-87
2021/07/02 04:20:51;;;;;;;;;2.00;2.00;;;;;23.05;50.84;98175.72;4909896;28;103055;-87
2021/07/02 04:23:22;;;;;;;;;2.00;2.00;;;;;23.05;50.91;98163.88;4925217;28;102494;-88
2021/07/02 04:25:50;;;;;;;;;3.33;2.67;;;;;23.03;50.77;98169.66;4895026;28;102677;-87
2021/07/02 04:28:18;;;;;;;;;3.00;3.00;;;;;23.04;50.94;98160.28;4917127;28;102793;-87
2021/07/02 04:30:46;;;;;;;;;3.00;2.33;;;;;23.05;50.78;98164.69;4910672;28;104731;-88
2021/07/02 04:33:16;;;;;;;;;3.00;3.00;;;;;23.02;50.61;98157.00;4911500;28;102238;-88
2021/07/02 04:35:44;;;;;;;;;2.33;2.00;;;;;23.03;50.81;98166.09;4929294;28;102564;-88
2021/07/02 04:38:11;;;;;;;;;2.00;2.00;;;;;23.03;50.84;98164.16;4915640;28;103972;-87
2021/07/02 04:40:39;;;;;;;;;3.00;2.00;;;;;23.04;50.72;98165.81;4916272;28;104325;-88
2021/07/02 04:43:06;;;;;;;;;3.00;3.00;;;;;23.04;50.62;98168.56;4927409;28;102392;-88
2021/07/02 04:45:37;;;;;;;;;2.33;2.00;;;;;23.04;50.77;98163.06;4921153;28;102416;-88
2021/07/02 04:48:07;;;;;;;;;3.00;2.00;;;;;23.02;50.79;98176.28;4912509;28;102459;-87
2021/07/02 04:50:35;;;;;;;;;3.33;2.67;;;;;23.04;50.75;98165.81;4887272;28;103702;-88
2021/07/02 04:53:06;;;;;;;;;3.00;3.00;;;;;23.03;50.71;98174.38;4884796;28;102412;-87
2021/07/02 04:55:33;;;;;;;;;3.00;3.00;;;;;23.05;50.80;98174.91;4913265;28;103037;-86
2021/07/02 04:58:01;;;;;;;;;3.00;2.67;;;;;23.04;51.00;98176.00;4906798;28;102562;-87
2021/07/02 05:00:28;;;;;;;;;2.00;2.00;;;;;23.05;51.42;98183.19;4904722;28;104218;-88
2021/07/02 05:02:55;;;;;;;;;2.00;2.00;;;;;23.03;53.27;98175.19;4905214;28;103180;-88
2021/07/02 05:05:27;;;;;;;;;3.00;3.00;;;;;23.04;53.81;98176.84;4915074;28;102570;-88
2021/07/02 05:07:55;;;;;;;;;2.33;2.33;;;;;23.00;54.33;98183.22;4928063;28;102754;-88
2021/07/02 05:10:22;;;;;;;;;3.00;3.00;;;;;22.95;54.24;98178.59;4893004;28;104069;-87
2021/07/02 05:12:50;;;;;;;;;1.00;1.00;;;;;22.99;54.03;98179.66;4914645;28;102601;-87
2021/07/02 05:15:19;;;;;;;;;2.67;2.67;;;;;23.01;53.80;98176.59;4943977;28;101978;-87
2021/07/02 05:17:48;;;;;;;;;3.00;2.00;;;;;23.02;53.76;98195.59;4918053;28;103822;-87
2021/07/02 05:20:16;;;;;;;;;3.00;3.00;;;;;23.02;53.71;98192.84;4959034;28;103154;-88
2021/07/02 05:22:43;;;;;;;;;3.00;2.33;;;;;23.04;53.42;98192.56;4946843;28;101761;-88
2021/07/02 05:25:18;;;;;;;;;3.00;3.00;;;;;23.03;53.50;98191.72;4897010;28;101913;-87
2021/07/02 05:27:46;;;;;;;;;3.00;3.00;;;;;22.99;53.80;98192.59;4954547;28;103132;-89
2021/07/02 05:30:27;;;;;;;;;4.00;2.33;;;;;22.96;53.94;98196.78;4877080;28;108384;-89
2021/07/02 05:32:56;;;;;;;;;3.00;3.00;;;;;22.96;53.83;98196.78;4926141;28;102599;-89
2021/07/02 05:35:23;;;;;;;;;3.67;3.00;;;;;22.98;53.91;98197.28;4905016;28;102846;-89
2021/07/02 05:38:00;;;;;;;;;2.33;2.00;;;;;22.96;54.06;98199.53;4938231;28;102133;-89
2021/07/02 05:40:28;;;;;;;;;2.67;2.67;;;;;22.97;54.06;98201.16;4937678;28;104116;-89
2021/07/02 05:42:55;;;;;;;;;2.00;2.00;;;;;23.00;54.01;98214.38;4920434;28;104229;-89
2021/07/02 05:45:22;;;;;;;;;3.00;2.00;;;;;23.03;54.10;98207.47;4927526;28;103715;-88
2021/07/02 05:47:51;;;;;;;;;3.33;3.33;;;;;23.04;54.23;98212.69;4922906;28;103155;-88
2021/07/02 05:50:18;;;;;;;;;2.67;2.00;;;;;23.05;53.92;98211.59;4931917;28;103289;-86
2021/07/02 05:52:46;;;;;;;;;2.00;2.00;;;;;22.93;53.93;98186.31;4929863;28;102226;-88
2021/07/02 05:55:14;;;;;;;;;2.00;2.00;;;;;23.07;54.11;98214.84;4943243;28;102359;-88
2021/07/02 05:57:41;;;;;;;;;2.00;2.00;;;;;23.06;54.08;98224.25;4925425;28;102612;-88
2021/07/02 06:00:09;;;;;;;;;4.67;4.00;;;;;23.05;54.64;98219.84;4926656;28;104168;-88
2021/07/02 06:02:36;;;;;;;;;3.33;2.33;;;;;23.05;54.87;98219.84;4924718;28;103569;-88
2021/07/02 06:05:04;;;;;;;;;2.67;2.67;;;;;23.08;54.00;98216.50;4933082;28;105287;-88
2021/07/02 06:07:45;;;;;;;;;3.00;3.00;;;;;23.10;54.28;98219.78;4926016;28;103418;-88
2021/07/02 06:10:12;;;;;;;;;2.00;2.00;;;;;23.14;54.00;98218.09;4923260;28;104095;-88
2021/07/02 06:12:39;;;;;;;;;4.00;2.00;;;;;23.15;53.71;98213.38;4926852;28;102541;-88
2021/07/02 06:15:07;;;;;;;;;2.33;2.33;;;;;23.17;53.99;98213.09;4922428;28;104024;-88
2021/07/02 06:17:34;;;;;;;;;3.33;3.00;;;;;23.14;54.06;98209.81;4915367;28;103598;-88
2021/07/02 06:20:03;;;;;;;;;2.00;2.00;;;;;23.16;54.31;98217.78;4923064;28;104014;-88
2021/07/02 06:22:30;;;;;;;;;3.00;2.00;;;;;23.17;53.82;98218.63;4919900;28;104331;-88
2021/07/02 06:24:57;;;;;;;;;2.67;2.67;;;;;23.17;54.70;98216.69;4914152;28;103997;-89
2021/07/02 06:27:24;;;;;;;;;1.67;1.67;;;;;23.13;54.57;98219.22;4920154;28;102425;-89
2021/07/02 06:29:51;;;;;;;;;4.00;3.00;;;;;23.15;54.24;98221.66;4902431;28;104436;-89
2021/07/02 06:32:18;;;;;;;;;2.00;2.00;;;;;23.18;54.72;98220.28;4936422;28;105900;-89
2021/07/02 06:34:46;;;;;;;;;2.00;2.00;;;;;23.18;54.59;98220.28;4922748;28;102543;-89
2021/07/02 06:37:13;;;;;;;;;2.67;2.67;;;;;23.17;54.56;98224.97;4925370;28;102706;-89
2021/07/02 06:39:40;;;;;;;;;2.33;2.00;;;;;23.14;54.98;98220.84;4933327;28;105483;-89
2021/07/02 06:42:07;;;;;;;;;3.67;3.00;;;;;23.17;54.65;98218.63;4905480;28;102975;-89
2021/07/02 06:44:34;;;;;;;;;2.00;2.00;;;;;23.18;54.14;98225.78;4937903;28;103249;-89
2021/07/02 06:47:02;;;;;;;;;2.00;2.00;;;;;23.20;54.39;98223.53;4911625;28;103153;-89
2021/07/02 06:49:29;;;;;;;;;2.00;2.00;;;;;23.21;54.42;98220.50;4930074;28;104244;-89
2021/07/02 06:51:56;;;;;;;;;3.00;3.00;;;;;23.20;54.80;98218.03;4912303;28;104597;-89
2021/07/02 06:54:23;;;;;;;;;3.00;3.00;;;;;23.21;54.50;98220.50;4919351;28;103438;-88
2021/07/02 06:57:03;;;;;;;;;2.33;2.33;;;;;23.23;54.29;98226.56;4926803;28;102862;-88
2021/07/02 06:59:34;;;;;;;;;2.00;2.00;;;;;23.24;54.59;98224.59;4908423;28;104195;-88
2021/07/02 07:02:01;;;;;;;;;2.67;2.67;;;;;23.23;54.75;98217.47;4925499;28;102220;-88
2021/07/02 07:04:37;;;;;;;;;3.00;3.00;;;;;23.26;54.51;98216.88;4917430;28;102167;-88
2021/07/02 07:07:06;;;;;;;;;2.67;2.33;;;;;23.26;54.43;98211.34;4913011;28;102918;-87
2021/07/02 07:09:33;;;;;;;;;1.33;1.33;;;;;23.24;54.87;98210.81;4926066;28;104262;-88
2021/07/02 07:12:01;;;;;;;;;2.00;2.00;;;;;23.25;54.83;98210.53;4908937;28;104431;-88
2021/07/02 07:14:28;;;;;;;;;3.33;3.00;;;;;23.24;55.07;98219.09;4906209;28;103451;-87
2021/07/02 07:16:55;;;;;;;;;2.00;2.00;;;;;23.25;55.13;98210.53;4938063;28;102787;-87
2021/07/02 07:19:26;;;;;;;;;3.00;3.00;;;;;23.26;54.99;98205.84;4906631;28;103893;-88
2021/07/02 07:21:54;;;;;;;;;2.00;2.00;;;;;23.29;54.74;98213.53;4922798;28;103315;-88
2021/07/02 07:24:21;;;;;;;;;3.00;3.00;;;;;23.30;54.76;98218.75;4933170;28;102040;-89
2021/07/02 07:26:53;;;;;;;;;3.33;2.67;;;;;23.32;55.01;98212.97;4907000;28;103152;-89
2021/07/02 07:29:20;;;;;;;;;2.00;2.00;;;;;23.33;55.79;98217.34;4936027;28;104323;-88
2021/07/02 07:31:48;;;;;;;;;3.00;3.00;;;;;23.33;55.69;98222.84;4934719;28;103073;-89
2021/07/02 07:34:23;;;;;;;;;3.00;3.00;;;;;23.33;55.71;98214.56;4916583;28;109284;-89
2021/07/02 07:36:56;;;;;;;;;1.00;1.00;;;;;23.34;55.86;98214.28;4930044;28;102182;-88
2021/07/02 07:39:23;;;;;;;;;2.67;2.00;;;;;23.35;55.90;98209.59;4923064;28;103929;-88
2021/07/02 07:41:50;;;;;;;;;3.00;2.00;;;;;23.35;56.30;98220.63;4919569;28;105367;-89
2021/07/02 07:44:17;;;;;;;;;3.00;3.00;;;;;23.35;56.11;98209.59;4939801;28;102583;-89
2021/07/02 07:46:44;;;;;;;;;3.33;2.67;;;;;23.35;56.15;98213.19;4927655;28;102378;-89
2021/07/02 07:49:12;;;;;;;;;2.00;1.67;;;;;23.36;56.03;98217.59;4918240;28;104180;-89
2021/07/02 07:51:49;;;;;;;;;3.00;2.67;;;;;23.36;56.26;98222.28;4930201;28;101981;-89
2021/07/02 07:54:16;;;;;;;;;1.33;1.00;;;;;23.36;56.40;98209.31;4920540;28;104004;-89
2021/07/02 07:56:50;;;;;;;;;2.00;2.00;;;;;23.36;56.64;98211.25;4924100;28;102232;-89
2021/07/02 07:59:18;;;;;;;;;1.67;1.67;;;;;23.39;56.35;98210.66;4925541;28;109166;-89
2021/07/02 08:01:45;;;;;;;;;2.00;2.00;;;;;23.38;56.55;98214.53;4917353;28;102189;-89
2021/07/02 08:04:25;;;;;;;;;2.00;2.00;;;;;23.37;56.43;98212.91;4916835;28;102225;-89
2021/07/02 08:06:52;;;;;;;;;2.00;2.00;;;;;23.38;56.53;98214.53;4912726;28;102313;-87
2021/07/02 08:09:19;;;;;;;;;2.00;2.00;;;;;23.39;56.24;98219.75;4921085;28;104713;-89
2021/07/02 08:11:46;;;;;;;;;1.00;1.00;;;;;23.40;56.40;98213.13;4921396;28;102557;-89
2021/07/02 08:14:14;;;;;;;;;1.00;1.00;;;;;23.42;56.25;98204.53;4929887;28;102086;-89
2021/07/02 08:16:41;;;;;;;;;1.67;1.67;;;;;23.43;56.02;98203.44;4916955;28;102279;-88
2021/07/02 08:19:08;;;;;;;;;1.33;1.00;;;;;23.43;55.84;98206.19;4924143;28;104012;-87
2021/07/02 08:21:35;;;;;;;;;3.67;1.67;;;;;23.45;55.96;98201.25;4932060;28;102700;-88
2021/07/02 08:24:03;;;;;;;;;2.67;2.67;;;;;23.46;55.59;98205.66;4918596;28;104248;-88
2021/07/02 08:26:31;;;;;;;;;1.00;1.00;;;;;23.46;55.72;98205.66;4933786;28;102657;-87
2021/07/02 08:31:47;;;;;;;;;2.00;2.00;;;;;23.36;55.90;98200.22;4921286;28;102603;-88
2021/07/02 08:34:14;;;;;;;;;3.00;2.00;;;;;23.49;56.06;98211.41;4925243;28;102577;-88
2021/07/02 08:36:41;;;;;;;;;2.33;2.00;;;;;23.49;56.02;98211.41;4936341;28;102858;-88
2021/07/02 08:39:10;;;;;;;;;2.00;1.33;;;;;23.50;56.18;98212.22;4919085;28;104426;-88
2021/07/02 08:41:38;;;;;;;;;2.00;2.00;;;;;23.50;56.26;98212.22;4928593;28;102488;-88
2021/07/02 08:44:06;;;;;;;;;1.33;1.00;;;;;23.52;56.05;98215.50;4930606;28;104134;-88
2021/07/02 08:46:34;;;;;;;;;2.33;1.33;;;;;23.52;56.18;98218.25;4917265;28;102695;-88
2021/07/02 08:49:21;;;;;;;;;2.00;2.00;;;;;23.52;56.07;98221.00;4923971;28;110674;-88
2021/07/02 08:51:49;;;;;;;;;2.00;2.00;;;;;23.51;56.43;98228.47;4935084;28;103735;-88
2021/07/02 08:54:17;;;;;;;;;1.00;1.00;;;;;23.53;56.30;98228.19;4917408;28;102644;-87
2021/07/02 08:56:57;;;;;;;;;2.33;2.33;;;;;23.54;56.21;98229.84;4936139;28;102879;-88
2021/07/02 08:59:28;;;;;;;;;1.00;1.00;;;;;23.54;56.17;98218.78;4929304;28;108998;-87
2021/07/02 09:01:56;;;;;;;;;1.00;1.00;;;;;23.54;56.44;98213.28;4910453;28;102692;-87
2021/07/02 09:04:27;;;;;;;;;3.00;1.67;;;;;23.56;55.84;98224.81;4937830;28;102115;-85
2021/07/02 09:07:02;;;;;;;;;2.00;2.00;;;;;23.57;56.13;98220.97;4934072;28;102612;-84
2021/07/02 09:09:47;;;;;;;;;1.00;1.00;;;;;23.60;56.17;98228.66;4916491;28;104226;-84
2021/07/02 09:12:17;;;;;;;;;1.00;1.00;;;;;23.59;56.08;98223.44;4933933;28;102283;-84
2021/07/02 09:15:09;;;;;;;;;2.00;2.00;;;;;23.58;55.98;98210.75;4935249;28;102038;-86
2021/07/02 09:17:37;;;;;;;;;3.00;3.00;;;;;23.62;56.03;98211.78;4863180;28;103715;-86
2021/07/02 09:20:19;;;;;;;;;2.00;2.00;;;;;23.64;56.01;98213.13;4920242;28;103926;-86
2021/07/02 09:22:53;;;;;;;;;1.67;1.67;;;;;23.63;56.29;98211.50;4934934;28;102548;-86
2021/07/02 09:25:24;;;;;;;;;1.00;1.00;;;;;23.63;56.43;98216.22;4925123;28;102708;-86
2021/07/02 09:27:53;;;;;;;;;2.33;2.00;;;;;23.66;56.37;98210.91;4926539;28;102998;-90
2021/07/02 09:30:23;;;;;;;;;3.00;3.00;;;;;23.68;56.28;98219.72;4924694;28;109158;-86
2021/07/02 09:33:02;;;;;;;;;2.67;2.33;;;;;23.70;56.24;98222.19;4925294;28;102582;-86
2021/07/02 09:35:31;;;;;;;;;3.33;3.33;;;;;23.67;56.45;98208.97;4932924;28;102376;-86
2021/07/02 09:37:59;;;;;;;;;3.67;2.33;;;;;23.70;56.34;98216.66;4939989;28;102687;-86
2021/07/02 09:40:29;;;;;;;;;3.00;3.00;;;;;23.71;56.38;98205.31;4924967;28;104206;-86
2021/07/02 09:43:16;;;;;;;;;2.00;2.00;;;;;23.72;56.32;98215.25;4919334;28;102626;-87
2021/07/02 09:45:53;;;;;;;;;2.67;2.67;;;;;23.72;56.32;98215.25;4937563;28;103501;-87
2021/07/02 09:48:21;;;;;;;;;2.00;2.00;;;;;23.74;56.30;98212.19;4930683;28;103924;-87
2021/07/02 09:50:58;;;;;;;;;2.00;2.00;;;;;23.74;56.28;98213.00;4922741;28;107697;-86
2021/07/02 09:53:28;;;;;;;;;4.00;3.00;;;;;23.75;56.47;98220.19;4931341;28;102597;-86
2021/07/02 09:55:57;;;;;;;;;3.00;3.00;;;;;23.77;56.52;98219.91;4935190;28;102130;-86
2021/07/02 09:58:28;;;;;;;;;4.33;3.00;;;;;23.77;56.22;98217.97;4926114;28;102652;-85
2021/07/02 10:00:57;;;;;;;;;6.00;6.00;;;;;23.75;56.73;98220.19;4936593;28;104442;-85
2021/07/02 10:03:26;;;;;;;;;6.00;6.00;;;;;23.73;56.25;98216.09;4930988;28;102466;-85
2021/07/02 10:06:14;;;;;;;;;6.00;6.00;;;;;23.73;56.24;98214.13;4931212;28;102416;-86
2021/07/02 10:08:41;;;;;;;;;5.00;5.00;;;;;23.74;56.12;98218.53;4941815;28;102167;-86
2021/07/02 10:11:10;;;;;;;;;6.33;6.33;;;;;23.76;56.18;98216.31;4930186;28;104883;-86
2021/07/02 10:13:48;;;;;;;;;5.67;5.00;;;;;23.79;56.08;98221.22;4927797;28;102536;-85
2021/07/02 10:16:16;;;;;;;;;5.33;5.33;;;;;23.79;56.17;98221.22;4930721;28;102622;-86
2021/07/02 10:18:49;;;;;;;;;4.00;4.00;;;;;23.81;56.23;98210.72;4931245;28;104363;-86
2021/07/02 10:21:18;;;;;;;;;5.00;4.33;;;;;23.82;56.20;98208.78;4925295;28;104042;-86
2021/07/02 10:23:48;;;;;;;;;3.00;3.00;;;;;23.82;56.15;98206.03;4936737;28;102724;-86
2021/07/02 10:26:16;;;;;;;;;5.00;4.00;;;;;23.82;56.10;98208.78;4923876;28;102293;-85
2021/07/02 10:28:44;;;;;;;;;5.00;4.33;;;;;23.79;56.17;98212.13;4923804;28;105952;-86
2021/07/02 10:31:11;;;;;;;;;3.00;2.67;;;;;23.82;56.37;98204.06;4936482;28;104400;-86
2021/07/02 10:33:44;;;;;;;;;4.33;4.00;;;;;23.83;56.46;98211.22;4916138;28;103694;-86
2021/07/02 10:36:12;;;;;;;;;4.67;4.67;;;;;23.84;56.33;98210.13;4919417;28;102392;-86
2021/07/02 10:38:41;;;;;;;;;8.00;4.33;;;;;23.85;56.40;98214.53;4926968;28;102466;-86
2021/07/02 10:41:15;;;;;;;;;4.00;4.00;;;;;23.86;56.13;98213.44;4923702;28;105248;-86
2021/07/02 10:44:04;;;;;;;;;3.33;3.00;;;;;23.87;55.99;98212.28;4928701;28;102194;-86
2021/07/02 10:46:41;;;;;;;;;4.00;4.00;;;;;23.89;56.26;98212.00;4875906;28;102518;-86
2021/07/02 10:49:09;;;;;;;;;3.67;3.67;;;;;23.84;56.49;98207.38;4927013;28;103934;-87
2021/07/02 10:51:39;;;;;;;;;4.00;4.00;;;;;23.85;56.39;98208.19;4912903;28;104379;-85
2021/07/02 10:54:12;;;;;;;;;3.00;3.00;;;;;23.88;56.53;98208.41;4936359;28;102189;-85
2021/07/02 10:56:44;;;;;;;;;5.67;5.00;;;;;23.89;56.43;98204.53;4918201;28;104659;-84
2021/07/02 10:59:14;;;;;;;;;4.67;4.00;;;;;23.90;56.30;98202.59;4924386;28;102640;-84
2021/07/02 11:02:11;;;;;;;;;3.33;3.00;;;;;23.90;56.49;98206.19;4932282;28;104133;-84
2021/07/02 11:04:48;;;;;;;;;5.00;4.00;;;;;23.93;56.48;98202.81;4870885;28;103301;-85
2021/07/02 11:07:18;;;;;;;;;3.00;3.00;;;;;23.94;56.37;98201.72;4911985;28;103598;-85
2021/07/02 11:09:49;;;;;;;;;3.33;3.33;;;;;23.95;56.41;98203.38;4928981;28;102841;-85
2021/07/02 11:12:31;;;;;;;;;4.00;4.00;;;;;23.97;56.26;98200.28;4926461;28;104111;-85
2021/07/02 11:15:01;;;;;;;;;3.33;3.33;;;;;23.99;56.46;98198.06;4876603;28;103677;-85
2021/07/02 11:17:32;;;;;;;;;4.00;3.33;;;;;24.00;56.21;98203.25;4930145;28;102349;-84
2021/07/02 11:22:34;;;;;;;;;3.67;3.67;;;;;23.98;56.51;98186.19;4926197;28;104260;-85
2021/07/02 11:25:11;;;;;;;;;4.33;4.00;;;;;24.02;56.28;98181.69;4931806;28;102297;-85
2021/07/02 11:27:43;;;;;;;;;4.00;4.00;;;;;24.04;56.17;98181.41;4920744;28;102345;-84
2021/07/02 11:30:33;;;;;;;;;2.33;2.33;;;;;23.98;56.48;98188.13;4923978;28;102478;-85
2021/07/02 11:33:09;;;;;;;;;4.33;3.00;;;;;24.04;56.45;98177.81;4875120;28;108791;-85
2021/07/02 11:35:40;;;;;;;;;3.00;3.00;;;;;24.05;56.51;98171.97;4927332;28;102121;-85
2021/07/02 11:38:15;;;;;;;;;4.67;4.00;;;;;23.93;56.22;98157.81;4925208;28;101982;-85
2021/07/02 11:40:55;;;;;;;;;4.00;3.67;;;;;24.07;56.24;98183.56;4929640;28;103805;-85
2021/07/02 11:43:31;;;;;;;;;4.00;3.33;;;;;24.07;56.15;98179.97;4922191;28;109231;-85